Time;durP1;ratioP1;P1;durP2;ratioP2;P2;SDS_P1;SDS_P2;PMS_P1;PMS_P2;Temp;Humidity;BMP_temperature;BMP_pressure;BME280_temperature;BME280_humidity;BME280_pressure;Samples;Min_cycle;Max_cycle;Signal;HPM_P1;HPM_P2
2023/05/25 00:02:28;;;;;;;7.20;4.00;;;23.40;64.70;;;;;;222161;1257;24336;-43
2023/05/25 00:07:32;;;;;;;7.20;3.70;;;23.30;64.60;;;;;;221819;1268;22634;-42
2023/05/25 00:12:36;;;;;;;6.10;3.70;;;23.30;64.00;;;;;;221507;1263;22534;-44
2023/05/25 00:17:41;;;;;;;8.00;3.90;;;23.30;64.70;;;;;;221664;1257;26535;-45
2023/05/25 00:22:45;;;;;;;6.00;3.90;;;23.30;64.30;;;;;;221719;1263;22536;-46
2023/05/25 00:27:49;;;;;;;5.80;3.30;;;23.40;64.30;;;;;;221629;1256;25390;-44
2023/05/25 00:32:54;;;;;;;5.40;3.50;;;23.30;64.30;;;;;;221913;1262;23942;-45
2023/05/25 00:37:58;;;;;;;5.90;3.80;;;23.30;64.30;;;;;;221850;1266;23924;-45
2023/05/25 00:43:02;;;;;;;7.90;3.90;;;23.30;64.20;;;;;;221990;1256;24308;-46
2023/05/25 00:48:08;;;;;;;5.70;3.40;;;23.30;64.20;;;;;;221783;1264;22539;-45
2023/05/25 00:53:13;;;;;;;7.60;3.70;;;23.30;63.70;;;;;;221801;1265;24353;-44
2023/05/25 00:58:21;;;;;;;5.90;3.50;;;23.30;64.30;;;;;;221637;1265;22778;-44
2023/05/25 01:03:28;;;;;;;4.60;3.30;;;23.30;64.20;;;;;;221976;1269;22506;-42
2023/05/25 01:08:34;;;;;;;7.20;3.20;;;23.30;64.20;;;;;;221816;1258;24189;-46
2023/05/25 01:13:40;;;;;;;6.20;3.40;;;23.30;64.30;;;;;;221775;1266;24469;-44
2023/05/25 01:18:46;;;;;;;5.50;3.50;;;23.20;64.20;;;;;;221536;1257;22524;-46
2023/05/25 01:24:33;;;;;;;5.60;3.30;;;23.20;64.00;;;;;;221653;1271;23877;-44
2023/05/25 01:29:40;;;;;;;4.60;3.40;;;23.20;64.20;;;;;;220461;1278;23381;-43
2023/05/25 01:34:47;;;;;;;5.30;3.60;;;23.20;64.00;;;;;;220315;1268;22533;-46
2023/05/25 01:39:51;;;;;;;4.50;3.10;;;23.20;64.10;;;;;;220595;1271;22538;-46
2023/05/25 01:44:55;;;;;;;4.00;2.90;;;23.20;64.40;;;;;;220656;1278;22523;-46
2023/05/25 01:50:19;;;;;;;7.40;3.40;;;23.10;64.10;;;;;;220476;1270;25235;-44
2023/05/25 01:55:27;;;;;;;3.80;2.90;;;23.10;64.30;;;;;;220559;1274;22551;-46
2023/05/25 02:00:33;;;;;;;5.30;3.30;;;23.10;64.90;;;;;;221444;1271;23918;-43
2023/05/25 02:05:40;;;;;;;4.90;3.50;;;23.10;64.20;;;;;;221625;1268;25317;-45
2023/05/25 02:10:45;;;;;;;3.70;3.30;;;23.10;64.40;;;;;;221535;1259;217791;-45
2023/05/25 02:15:49;;;;;;;4.00;3.20;;;23.00;64.20;;;;;;221540;1256;22512;-43
2023/05/25 02:20:54;;;;;;;4.70;3.10;;;23.00;64.20;;;;;;221664;1269;22675;-44
2023/05/25 02:25:59;;;;;;;5.70;3.10;;;23.00;64.30;;;;;;221715;1264;22547;-45
2023/05/25 02:31:04;;;;;;;5.00;3.40;;;23.00;64.60;;;;;;221700;1268;24223;-45
2023/05/25 02:36:08;;;;;;;5.50;3.20;;;23.00;64.30;;;;;;221593;1263;23902;-43
2023/05/25 02:41:12;;;;;;;5.30;3.30;;;23.00;64.80;;;;;;221634;1264;22533;-43
2023/05/25 02:46:16;;;;;;;4.10;3.10;;;23.00;64.50;;;;;;221611;1270;22514;-44
2023/05/25 02:51:20;;;;;;;4.40;2.60;;;23.00;64.50;;;;;;221669;1269;22599;-45
2023/05/25 02:56:26;;;;;;;5.70;3.10;;;22.90;64.20;;;;;;221709;1269;23928;-44
2023/05/25 03:01:33;;;;;;;3.10;2.50;;;23.00;64.20;;;;;;221510;1259;22502;-43
2023/05/25 03:06:37;;;;;;;3.60;2.90;;;22.90;63.80;;;;;;221714;1265;24238;-44
2023/05/25 03:11:48;;;;;;;4.50;3.10;;;22.90;64.20;;;;;;221712;1253;24199;-44
2023/05/25 03:16:55;;;;;;;3.20;2.90;;;22.90;64.20;;;;;;221680;1253;25441;-49
2023/05/25 03:21:59;;;;;;;4.30;2.70;;;22.90;64.00;;;;;;221792;1271;22518;-42
2023/05/25 03:27:05;;;;;;;3.60;2.90;;;22.90;64.10;;;;;;221720;1263;23223;-47
2023/05/25 03:32:09;;;;;;;3.40;2.80;;;22.90;64.40;;;;;;222128;1270;24234;-46
2023/05/25 03:37:14;;;;;;;3.70;2.80;;;22.90;64.10;;;;;;221778;1267;22512;-44
2023/05/25 03:42:19;;;;;;;2.90;2.70;;;22.90;63.70;;;;;;221893;1269;24335;-43
2023/05/25 03:47:23;;;;;;;3.60;2.80;;;22.90;64.20;;;;;;221807;1270;22513;-49
2023/05/25 03:52:28;;;;;;;3.50;2.50;;;22.90;64.00;;;;;;221725;1269;22520;-43
2023/05/25 03:57:32;;;;;;;4.20;2.90;;;22.80;64.70;;;;;;221423;1272;23963;-46
2023/05/25 04:02:36;;;;;;;4.00;2.90;;;22.80;64.40;;;;;;221406;1267;22550;-46
2023/05/25 04:07:40;;;;;;;3.90;3.10;;;22.80;64.40;;;;;;221444;1266;24373;-44
2023/05/25 04:12:44;;;;;;;2.70;2.30;;;22.80;64.30;;;;;;221528;1271;24204;-43
2023/05/25 04:17:49;;;;;;;3.20;2.60;;;22.80;64.30;;;;;;221553;1264;23896;-46
2023/05/25 04:22:54;;;;;;;5.10;2.50;;;22.80;64.30;;;;;;221600;1265;24183;-44
2023/05/25 04:27:59;;;;;;;4.50;2.60;;;22.80;64.20;;;;;;221684;1264;24047;-46
2023/05/25 04:33:28;;;;;;;2.60;2.40;;;22.80;64.30;;;;;;221794;1269;24247;-46
2023/05/25 04:38:50;;;;;;;3.80;2.60;;;22.80;64.20;;;;;;221686;1272;24052;-44
2023/05/25 04:43:55;;;;;;;5.60;2.10;;;22.80;64.00;;;;;;221694;1267;22538;-44
2023/05/25 04:49:08;;;;;;;3.10;2.90;;;22.80;64.40;;;;;;221565;1255;24216;-43
2023/05/25 04:54:12;;;;;;;3.40;2.10;;;22.80;64.10;;;;;;221690;1271;25376;-44
2023/05/25 04:59:17;;;;;;;3.20;2.80;;;22.70;64.20;;;;;;221550;1271;22529;-44
2023/05/25 05:04:22;;;;;;;4.80;2.50;;;22.80;64.40;;;;;;221518;1268;22629;-44
2023/05/25 05:09:26;;;;;;;3.00;2.70;;;22.70;64.00;;;;;;221469;1264;22549;-45
2023/05/25 05:14:32;;;;;;;3.00;2.60;;;22.80;63.90;;;;;;221605;1269;25456;-44
2023/05/25 05:19:36;;;;;;;2.90;2.60;;;22.70;64.10;;;;;;221787;1256;23894;-42
2023/05/25 05:24:43;;;;;;;2.90;2.60;;;22.80;64.10;;;;;;221414;1268;22681;-43
2023/05/25 05:29:53;;;;;;;3.00;2.50;;;22.80;64.00;;;;;;222298;1269;23970;-47
2023/05/25 05:34:58;;;;;;;4.60;2.60;;;22.80;63.70;;;;;;221817;1258;22642;-44
2023/05/25 05:40:21;;;;;;;2.60;2.30;;;22.80;63.80;;;;;;221658;1266;22511;-45
2023/05/25 05:45:25;;;;;;;2.30;2.10;;;22.80;63.80;;;;;;221795;1266;23028;-44
2023/05/25 05:50:31;;;;;;;3.40;2.60;;;22.80;63.80;;;;;;221895;1269;25387;-47
2023/05/25 05:55:35;;;;;;;3.10;2.80;;;22.90;63.50;;;;;;221902;1269;22568;-47
2023/05/25 06:00:40;;;;;;;4.40;3.00;;;22.80;63.90;;;;;;221699;1268;22508;-46
2023/05/25 06:05:44;;;;;;;6.50;2.60;;;22.80;63.80;;;;;;221594;1266;22511;-47
2023/05/25 06:10:49;;;;;;;3.50;2.80;;;22.90;66.60;;;;;;221779;1266;22633;-51
2023/05/25 06:15:55;;;;;;;3.60;2.70;;;23.00;66.10;;;;;;222110;1265;25391;-47
2023/05/25 06:21:01;;;;;;;7.00;3.30;;;22.90;66.30;;;;;;221731;1270;24219;-50
2023/05/25 06:26:05;;;;;;;4.70;2.70;;;23.00;66.70;;;;;;221788;1271;24199;-50
2023/05/25 06:31:10;;;;;;;5.50;2.90;;;22.90;66.50;;;;;;221737;1266;22515;-50
2023/05/25 06:36:14;;;;;;;5.60;3.00;;;22.80;66.90;;;;;;221741;1269;24203;-45
2023/05/25 06:41:19;;;;;;;6.10;3.30;;;23.00;66.70;;;;;;221832;1266;22517;-50
2023/05/25 06:46:23;;;;;;;4.80;3.20;;;23.10;66.40;;;;;;221787;1271;22515;-49
2023/05/25 06:51:28;;;;;;;6.50;2.90;;;23.10;67.00;;;;;;221756;1271;22627;-48
2023/05/25 06:56:32;;;;;;;7.60;2.90;;;22.90;67.20;;;;;;221670;1260;24187;-49
2023/05/25 07:01:36;;;;;;;11.40;3.30;;;23.00;66.90;;;;;;221559;1266;22634;-51
2023/05/25 07:06:40;;;;;;;10.60;3.10;;;23.00;66.80;;;;;;221604;1257;22594;-50
2023/05/25 07:11:45;;;;;;;8.40;2.80;;;23.00;66.40;;;;;;221733;1257;22776;-47
2023/05/25 07:16:49;;;;;;;5.90;3.30;;;23.00;66.20;;;;;;221981;1271;22525;-49
2023/05/25 07:21:53;;;;;;;8.70;3.00;;;23.10;65.80;;;;;;223140;1267;22522;-48
2023/05/25 07:26:57;;;;;;;8.20;3.30;;;23.10;65.20;;;;;;221645;1270;22561;-50
2023/05/25 07:32:02;;;;;;;5.40;3.20;;;23.00;64.70;;;;;;221670;1267;22594;-50
2023/05/25 07:37:06;;;;;;;4.70;2.60;;;23.00;64.20;;;;;;221523;1271;22527;-51
2023/05/25 07:42:10;;;;;;;3.60;2.70;;;23.00;64.60;;;;;;221528;1264;24232;-50
2023/05/25 07:47:14;;;;;;;7.00;3.00;;;23.00;65.00;;;;;;221694;1258;25369;-50
2023/05/25 07:52:19;;;;;;;3.80;3.20;;;23.00;64.80;;;;;;221724;1264;24337;-50
2023/05/25 07:57:24;;;;;;;5.70;3.30;;;23.00;64.90;;;;;;221648;1264;24369;-47
2023/05/25 08:02:27;;;;;;;6.20;3.40;;;22.90;64.30;;;;;;221750;1259;22513;-48
2023/05/25 08:07:32;;;;;;;3.30;2.80;;;23.00;64.40;;;;;;221820;1257;22636;-47
2023/05/25 08:12:36;;;;;;;6.70;3.30;;;23.00;64.30;;;;;;221934;1257;25268;-48
2023/05/25 08:17:52;;;;;;;5.40;3.30;;;23.00;64.40;;;;;;221662;1264;23946;-50
2023/05/25 08:22:58;;;;;;;3.40;2.90;;;23.00;64.20;;;;;;221764;1260;22761;-47
2023/05/25 08:28:02;;;;;;;5.60;2.80;;;23.00;64.20;;;;;;221682;1260;24346;-49
2023/05/25 08:33:06;;;;;;;3.30;3.00;;;23.00;64.00;;;;;;221770;1260;22631;-48
2023/05/25 08:38:10;;;;;;;5.50;2.90;;;23.00;64.10;;;;;;221936;1259;23169;-50
2023/05/25 08:43:14;;;;;;;5.60;2.80;;;23.00;64.40;;;;;;221637;1258;22944;-49
2023/05/25 08:48:21;;;;;;;4.90;2.60;;;23.00;64.00;;;;;;221764;1267;22585;-50
2023/05/25 08:53:44;;;;;;;4.90;2.80;;;23.00;64.00;;;;;;221615;1257;22584;-47
2023/05/25 08:59:08;;;;;;;4.50;3.40;;;23.00;63.80;;;;;;221792;1269;22508;-47
2023/05/25 09:04:13;;;;;;;2.70;2.50;;;23.00;64.30;;;;;;222006;1267;23263;-50
2023/05/25 09:09:17;;;;;;;4.50;2.80;;;23.00;63.90;;;;;;221696;1257;23883;-49
2023/05/25 09:14:23;;;;;;;5.30;2.90;;;23.00;63.70;;;;;;221739;1265;22696;-50
2023/05/25 09:19:27;;;;;;;4.40;2.90;;;23.10;63.70;;;;;;222080;1258;22543;-49
2023/05/25 09:24:33;;;;;;;4.50;2.60;;;23.00;63.90;;;;;;221637;1263;24193;-48
2023/05/25 09:29:37;;;;;;;3.40;2.80;;;23.10;63.50;;;;;;221791;1257;24187;-49
2023/05/25 09:34:46;;;;;;;3.50;2.40;;;23.10;63.40;;;;;;221878;1261;24311;-45
2023/05/25 09:39:51;;;;;;;4.00;3.10;;;23.20;63.30;;;;;;221651;1259;23006;-50
2023/05/25 09:44:57;;;;;;;4.30;2.90;;;23.20;63.40;;;;;;221832;1247;22530;-47
2023/05/25 09:50:02;;;;;;;3.70;3.40;;;23.30;63.20;;;;;;221913;1258;25227;-56
2023/05/25 09:55:09;;;;;;;5.40;3.00;;;23.30;63.10;;;;;;221693;1264;22535;-47
2023/05/25 10:00:14;;;;;;;3.00;2.80;;;23.30;62.90;;;;;;221757;1264;24219;-51
2023/05/25 10:05:19;;;;;;;3.60;3.10;;;23.30;62.80;;;;;;221757;1264;22517;-51
2023/05/25 10:10:23;;;;;;;5.10;3.20;;;23.30;63.10;;;;;;221858;1260;25480;-50
2023/05/25 10:15:29;;;;;;;5.10;3.10;;;23.30;62.70;;;;;;221711;1264;22517;-47
2023/05/25 10:20:35;;;;;;;3.70;3.30;;;23.40;62.80;;;;;;222164;1265;24350;-50
2023/05/25 10:25:44;;;;;;;2.60;2.40;;;23.40;62.60;;;;;;221864;1257;22531;-48
2023/05/25 10:30:49;;;;;;;3.90;3.20;;;23.40;63.00;;;;;;221660;1260;25460;-50
2023/05/25 10:35:54;;;;;;;3.10;2.60;;;23.40;62.50;;;;;;221774;1264;22623;-47
2023/05/25 10:41:14;;;;;;;3.40;2.90;;;23.40;62.50;;;;;;221810;1267;25380;-49
2023/05/25 10:46:19;;;;;;;3.50;2.50;;;23.40;62.40;;;;;;221791;1263;23867;-48
2023/05/25 10:51:39;;;;;;;2.80;2.60;;;23.40;62.30;;;;;;221628;1257;22507;-50
2023/05/25 10:57:09;;;;;;;4.30;2.80;;;23.50;62.30;;;;;;221643;1257;25274;-47
2023/05/25 11:02:15;;;;;;;4.40;2.70;;;23.60;62.20;;;;;;229573;1268;22321;-51
2023/05/25 11:07:20;;;;;;;3.90;3.00;;;23.60;61.50;;;;;;227155;1263;24289;-48
2023/05/25 11:12:25;;;;;;;4.90;2.90;;;23.80;61.00;;;;;;222563;1259;25309;-47
2023/05/25 11:17:31;;;;;;;3.50;2.90;;;23.80;61.10;;;;;;221993;1257;25523;-47
2023/05/25 11:22:36;;;;;;;4.30;2.90;;;23.60;62.00;;;;;;221992;1257;22516;-48
2023/05/25 11:27:46;;;;;;;2.90;2.70;;;23.60;62.20;;;;;;221746;1266;24352;-49
2023/05/25 11:32:50;;;;;;;3.70;3.30;;;23.60;62.10;;;;;;220995;1262;22570;-49
2023/05/25 11:37:54;;;;;;;3.00;2.50;;;23.60;62.30;;;;;;220937;1262;22597;-48
2023/05/25 11:42:59;;;;;;;4.00;2.70;;;23.70;61.80;;;;;;220714;1267;22857;-48
2023/05/25 11:48:04;;;;;;;3.40;2.70;;;23.70;61.70;;;;;;221143;1265;25259;-51
2023/05/25 11:53:10;;;;;;;6.10;2.90;;;23.60;61.90;;;;;;221710;1267;25412;-48
2023/05/25 11:58:13;;;;;;;6.10;3.40;;;23.60;61.60;;;;;;221799;1257;22570;-49
2023/05/25 12:03:30;;;;;;;5.70;2.80;;;23.70;61.50;;;;;;221798;1260;24275;-46
2023/05/25 12:08:36;;;;;;;2.90;2.70;;;23.70;62.00;;;;;;222053;1256;22745;-46
2023/05/25 12:13:40;;;;;;;4.10;2.80;;;23.70;62.30;;;;;;221827;1258;22709;-53
2023/05/25 12:18:45;;;;;;;2.80;2.60;;;23.70;63.30;;;;;;221863;1264;23925;-47
2023/05/25 12:23:50;;;;;;;3.30;3.00;;;23.70;62.90;;;;;;221678;1265;23019;-48
2023/05/25 12:29:04;;;;;;;3.60;2.90;;;23.60;64.00;;;;;;221917;1259;22543;-47
2023/05/25 12:34:16;;;;;;;3.70;2.60;;;23.60;64.40;;;;;;221753;1259;22719;-50
2023/05/25 12:39:29;;;;;;;3.50;3.20;;;23.60;64.80;;;;;;221814;1260;24060;-49
2023/05/25 12:44:35;;;;;;;3.50;2.90;;;23.50;64.60;;;;;;221703;1267;22515;-52
2023/05/25 12:49:41;;;;;;;3.00;2.80;;;23.60;65.00;;;;;;221901;1257;22525;-46
2023/05/25 12:54:47;;;;;;;2.70;2.50;;;23.60;65.30;;;;;;221663;1256;23917;-50
2023/05/25 12:59:55;;;;;;;4.00;3.10;;;23.60;65.10;;;;;;221770;1257;22566;-47
2023/05/25 13:04:59;;;;;;;3.30;3.00;;;23.60;65.40;;;;;;221807;1259;24314;-47
2023/05/25 13:10:05;;;;;;;3.40;2.80;;;23.70;65.90;;;;;;221787;1259;22633;-47
2023/05/25 13:15:10;;;;;;;2.90;2.70;;;23.60;66.30;;;;;;221778;1266;22636;-49
2023/05/25 13:20:15;;;;;;;3.30;3.00;;;23.60;66.80;;;;;;221772;1266;22512;-48
2023/05/25 13:25:20;;;;;;;3.40;3.10;;;23.70;66.30;;;;;;221777;1269;24296;-49
2023/05/25 13:30:25;;;;;;;3.20;2.90;;;23.70;66.60;;;;;;221803;1262;22534;-47
2023/05/25 13:35:40;;;;;;;4.00;2.70;;;23.60;66.70;;;;;;220853;1263;22524;-49
2023/05/25 13:40:45;;;;;;;4.90;2.80;;;23.70;66.90;;;;;;220849;1272;23748;-47
2023/05/25 13:45:49;;;;;;;2.70;2.50;;;23.70;67.40;;;;;;220738;1274;22611;-48
2023/05/25 13:50:54;;;;;;;5.80;2.80;;;23.70;67.40;;;;;;221024;1263;22622;-46
2023/05/25 13:55:59;;;;;;;3.90;2.90;;;23.80;66.80;;;;;;220800;1262;24357;-47
2023/05/25 14:01:04;;;;;;;3.10;2.80;;;23.70;67.20;;;;;;221577;1256;23850;-47
2023/05/25 14:06:08;;;;;;;3.00;2.80;;;23.80;67.20;;;;;;221671;1262;22527;-46
2023/05/25 14:11:12;;;;;;;3.30;3.00;;;23.80;67.60;;;;;;221553;1259;207890;-46
2023/05/25 14:16:16;;;;;;;3.40;3.10;;;23.80;67.60;;;;;;221679;1265;22687;-49
2023/05/25 14:21:20;;;;;;;3.10;2.90;;;23.80;67.00;;;;;;221565;1270;25308;-48
2023/05/25 14:26:28;;;;;;;3.00;2.80;;;23.80;67.00;;;;;;221764;1257;22517;-47
2023/05/25 14:31:32;;;;;;;2.70;2.50;;;23.90;67.50;;;;;;221707;1259;25180;-45
2023/05/25 14:36:36;;;;;;;2.90;2.70;;;23.80;66.50;;;;;;221744;1256;25342;-47
2023/05/25 14:41:41;;;;;;;4.00;3.00;;;23.70;66.80;;;;;;221931;1265;25347;-47
2023/05/25 14:46:45;;;;;;;3.20;3.00;;;23.70;67.40;;;;;;221812;1271;22602;-49
2023/05/25 14:51:50;;;;;;;2.90;2.70;;;23.80;66.60;;;;;;221838;1260;22531;-51
2023/05/25 14:56:54;;;;;;;2.90;2.70;;;23.80;66.80;;;;;;221820;1256;22513;-48
2023/05/25 15:01:58;;;;;;;2.60;2.40;;;23.80;67.40;;;;;;221711;1256;22528;-49
2023/05/25 15:07:03;;;;;;;2.20;2.10;;;23.80;67.20;;;;;;221812;1266;22564;-47
2023/05/25 15:12:07;;;;;;;3.10;2.90;;;23.90;66.70;;;;;;221637;1269;22508;-48
2023/05/25 15:17:11;;;;;;;2.70;2.50;;;23.80;66.70;;;;;;221606;1259;22503;-50
2023/05/25 15:22:15;;;;;;;3.80;3.40;;;23.70;66.80;;;;;;221478;1257;22634;-50
2023/05/25 15:27:20;;;;;;;5.60;2.90;;;23.70;66.90;;;;;;221752;1265;22566;-51
2023/05/25 15:32:24;;;;;;;3.90;2.40;;;23.80;67.80;;;;;;221684;1256;22855;-51
2023/05/25 15:37:29;;;;;;;3.40;2.90;;;23.90;67.40;;;;;;221683;1267;23915;-45
2023/05/25 15:42:35;;;;;;;10.00;5.20;;;23.90;65.50;;;;;;221845;1259;22517;-50
2023/05/25 15:47:39;;;;;;;5.50;4.10;;;23.90;65.60;;;;;;221794;1259;22812;-49
2023/05/25 15:52:45;;;;;;;6.00;4.10;;;23.90;66.60;;;;;;221685;1263;25400;-39
2023/05/25 15:57:49;;;;;;;8.10;4.30;;;23.90;66.40;;;;;;221872;1267;22521;-42
2023/05/25 16:02:53;;;;;;;3.90;3.40;;;23.90;65.80;;;;;;221781;1268;24331;-44
2023/05/25 16:07:58;;;;;;;5.10;3.60;;;23.90;65.70;;;;;;221760;1259;24325;-43
2023/05/25 16:13:02;;;;;;;5.10;3.50;;;23.90;65.30;;;;;;221939;1257;22526;-38
2023/05/25 16:18:08;;;;;;;3.60;3.30;;;23.80;64.90;;;;;;221580;1262;25395;-41
2023/05/25 16:23:13;;;;;;;5.10;3.60;;;23.80;64.90;;;;;;221612;1262;22676;-46
2023/05/25 16:28:17;;;;;;;7.20;3.70;;;23.80;65.00;;;;;;221813;1247;25472;-41
2023/05/25 16:33:21;;;;;;;4.00;3.40;;;23.80;65.00;;;;;;221834;1259;22517;-42
2023/05/25 16:38:25;;;;;;;5.40;3.70;;;23.80;64.90;;;;;;221758;1266;24335;-42
2023/05/25 16:43:29;;;;;;;6.10;3.50;;;23.80;65.20;;;;;;221622;1265;23874;-41
2023/05/25 16:48:33;;;;;;;5.20;4.10;;;24.10;66.10;;;;;;221751;1260;22644;-41
2023/05/25 16:53:37;;;;;;;5.30;3.80;;;24.10;67.30;;;;;;221654;1271;24238;-42
2023/05/25 16:58:41;;;;;;;4.90;4.40;;;24.10;68.50;;;;;;221646;1266;25066;-41
2023/05/25 17:03:45;;;;;;;6.10;4.40;;;24.20;69.40;;;;;;221852;1266;25618;-55
2023/05/25 17:08:49;;;;;;;4.60;4.20;;;24.10;69.50;;;;;;221780;1271;22546;-54
2023/05/25 17:13:54;;;;;;;4.50;3.70;;;24.10;69.60;;;;;;221728;1263;22516;-55
2023/05/25 17:18:59;;;;;;;3.80;3.40;;;24.00;69.60;;;;;;221674;1259;24340;-53
2023/05/25 17:24:03;;;;;;;5.00;3.90;;;24.00;67.60;;;;;;221856;1258;22540;-51
2023/05/25 17:29:07;;;;;;;5.40;3.70;;;24.00;67.20;;;;;;221526;1263;22514;-51
2023/05/25 17:34:11;;;;;;;7.30;4.20;;;23.90;66.80;;;;;;221717;1266;25160;-54
2023/05/25 17:39:15;;;;;;;5.00;3.50;;;24.00;65.90;;;;;;221626;1259;22652;-52
2023/05/25 17:44:19;;;;;;;4.20;3.20;;;24.00;65.50;;;;;;221597;1266;22523;-55
2023/05/25 17:49:23;;;;;;;4.20;3.50;;;24.00;65.50;;;;;;221549;1256;22507;-54
2023/05/25 17:54:27;;;;;;;3.50;3.20;;;23.90;65.30;;;;;;221554;1256;22643;-49
2023/05/25 17:59:31;;;;;;;3.80;3.50;;;23.80;65.00;;;;;;221590;1250;22565;-48
2023/05/25 18:04:36;;;;;;;5.40;3.70;;;23.80;65.50;;;;;;221581;1256;22516;-47
2023/05/25 18:09:40;;;;;;;4.00;3.30;;;23.70;64.80;;;;;;221582;1260;22767;-48
2023/05/25 18:14:44;;;;;;;3.90;3.30;;;23.70;64.60;;;;;;221787;1258;24209;-47
2023/05/25 18:19:48;;;;;;;5.50;3.60;;;23.60;63.80;;;;;;222325;1268;24069;-43
2023/05/25 18:24:53;;;;;;;7.60;3.20;;;23.70;64.00;;;;;;221744;1271;24186;-43
2023/05/25 18:29:57;;;;;;;5.70;3.90;;;23.70;64.20;;;;;;221748;1264;25259;-47
2023/05/25 18:35:02;;;;;;;5.20;3.50;;;23.60;64.70;;;;;;221792;1262;23647;-43
2023/05/25 18:40:10;;;;;;;5.20;3.50;;;23.60;64.50;;;;;;221938;1270;22554;-44
2023/05/25 18:45:15;;;;;;;6.40;3.00;;;23.70;64.60;;;;;;221911;1266;22550;-45
2023/05/25 18:50:22;;;;;;;16.10;3.30;;;23.70;64.60;;;;;;221947;1268;22516;-47
2023/05/25 18:55:28;;;;;;;7.70;3.20;;;23.90;65.00;;;;;;222057;1259;24188;-47
2023/05/25 19:00:32;;;;;;;8.70;3.40;;;23.90;65.00;;;;;;222053;1259;24107;-51
2023/05/25 19:05:36;;;;;;;9.20;3.70;;;23.90;65.60;;;;;;223941;1271;25259;-50
2023/05/25 19:10:40;;;;;;;6.20;3.00;;;24.10;66.60;;;;;;229665;1271;22144;-51
2023/05/25 19:15:45;;;;;;;10.80;4.10;;;24.40;66.30;;;;;;224859;1266;22514;-50
2023/05/25 19:20:50;;;;;;;8.90;3.50;;;24.30;66.70;;;;;;221750;1255;22662;-49
2023/05/25 19:25:54;;;;;;;9.40;3.70;;;24.10;67.20;;;;;;221725;1265;23841;-49
2023/05/25 19:30:59;;;;;;;5.00;3.30;;;23.90;66.60;;;;;;221863;1265;24170;-48
2023/05/25 19:36:04;;;;;;;6.20;3.50;;;23.90;66.70;;;;;;221780;1267;24188;-49
2023/05/25 19:41:09;;;;;;;10.70;3.60;;;23.80;67.10;;;;;;221814;1259;22659;-48
2023/05/25 19:46:13;;;;;;;12.00;3.70;;;23.70;67.10;;;;;;221792;1259;23896;-47
2023/05/25 19:51:17;;;;;;;13.10;3.80;;;23.80;67.00;;;;;;222018;1266;22651;-49
2023/05/25 19:56:22;;;;;;;7.20;3.70;;;23.80;67.10;;;;;;221516;1259;23940;-47
2023/05/25 20:01:26;;;;;;;6.60;3.80;;;23.90;67.30;;;;;;221638;1264;22515;-49
2023/05/25 20:06:31;;;;;;;12.00;4.40;;;23.90;68.60;;;;;;221742;1256;22533;-48
2023/05/25 20:11:35;;;;;;;7.90;4.10;;;23.80;68.60;;;;;;221876;1267;23143;-47
2023/05/25 20:16:40;;;;;;;9.00;3.70;;;23.80;67.20;;;;;;221641;1266;22518;-48
2023/05/25 20:21:45;;;;;;;5.70;3.80;;;23.70;67.60;;;;;;221654;1265;22605;-48
2023/05/25 20:26:55;;;;;;;9.80;3.60;;;23.80;67.70;;;;;;221725;1271;22644;-51
2023/05/25 20:31:59;;;;;;;6.90;3.80;;;23.80;67.60;;;;;;221816;1257;22577;-57
2023/05/25 20:37:06;;;;;;;3.90;3.50;;;23.60;66.90;;;;;;221792;1256;22511;-49
2023/05/25 20:42:12;;;;;;;6.90;3.40;;;23.70;66.50;;;;;;221671;1266;22629;-47
2023/05/25 20:47:16;;;;;;;9.20;3.40;;;23.80;66.30;;;;;;221706;1257;25147;-47
2023/05/25 20:52:22;;;;;;;8.60;4.40;;;23.70;66.30;;;;;;221718;1266;22517;-47
2023/05/25 20:57:26;;;;;;;19.50;3.90;;;23.70;66.20;;;;;;221884;1267;25543;-49
2023/05/25 21:02:30;;;;;;;6.90;3.60;;;23.70;66.00;;;;;;221940;1257;22646;-50
2023/05/25 21:07:34;;;;;;;4.70;3.10;;;23.70;65.90;;;;;;221717;1257;22511;-48
2023/05/25 21:12:38;;;;;;;5.50;3.40;;;23.80;65.60;;;;;;221979;1257;23929;-46
2023/05/25 21:17:42;;;;;;;14.70;3.40;;;23.90;65.80;;;;;;221814;1262;22517;-47
2023/05/25 21:22:46;;;;;;;5.00;3.30;;;23.90;65.70;;;;;;221656;1264;23103;-49
2023/05/25 21:27:51;;;;;;;5.80;3.60;;;23.80;65.00;;;;;;221882;1263;25339;-49
2023/05/25 21:32:58;;;;;;;14.30;4.50;;;23.70;65.70;;;;;;222212;1263;24690;-46
2023/05/25 21:38:03;;;;;;;12.50;3.60;;;23.70;65.70;;;;;;221576;1259;22521;-47
2023/05/25 21:43:07;;;;;;;11.80;3.50;;;23.60;66.10;;;;;;222012;1262;25309;-46
2023/05/25 21:48:11;;;;;;;9.80;3.60;;;23.80;65.50;;;;;;221876;1264;22718;-43
2023/05/25 21:53:16;;;;;;;6.80;3.40;;;23.80;65.10;;;;;;221649;1257;22511;-47
2023/05/25 21:58:20;;;;;;;10.50;3.60;;;23.80;65.10;;;;;;221563;1256;23339;-45
2023/05/25 22:03:23;;;;;;;9.60;3.40;;;23.80;65.10;;;;;;221750;1247;22627;-46
2023/05/25 22:08:27;;;;;;;5.00;3.80;;;23.70;65.10;;;;;;221549;1267;23890;-44
2023/05/25 22:13:31;;;;;;;5.00;3.40;;;23.70;64.70;;;;;;221579;1268;25466;-49
2023/05/25 22:18:35;;;;;;;5.60;3.40;;;23.60;64.70;;;;;;221922;1266;24206;-44
2023/05/25 22:23:41;;;;;;;6.90;3.20;;;23.70;65.20;;;;;;221732;1260;22585;-47
2023/05/25 22:28:44;;;;;;;6.90;3.50;;;23.60;64.60;;;;;;221562;1255;22528;-45
2023/05/25 22:33:48;;;;;;;4.00;3.20;;;23.70;65.10;;;;;;221642;1263;25310;-44
2023/05/25 22:38:53;;;;;;;14.90;4.60;;;23.60;64.70;;;;;;221793;1252;24249;-47
2023/05/25 22:43:56;;;;;;;11.90;4.30;;;23.60;67.40;;;;;;221811;1266;26686;-48
2023/05/25 22:49:00;;;;;;;17.30;4.10;;;23.60;68.00;;;;;;221701;1267;25214;-44
2023/05/25 22:54:04;;;;;;;7.50;3.50;;;23.60;67.50;;;;;;221417;1259;25322;-46
2023/05/25 22:59:08;;;;;;;5.50;3.60;;;23.60;67.40;;;;;;221734;1256;25309;-44
2023/05/25 23:04:12;;;;;;;9.40;3.80;;;23.60;67.40;;;;;;221868;1269;25309;-45
2023/05/25 23:09:17;;;;;;;6.90;3.80;;;23.60;67.40;;;;;;221546;1265;23351;-45
2023/05/25 23:14:20;;;;;;;4.90;3.60;;;23.50;67.60;;;;;;221642;1259;24256;-44
2023/05/25 23:19:24;;;;;;;5.80;3.50;;;23.40;67.90;;;;;;221612;1265;22546;-44
2023/05/25 23:24:28;;;;;;;10.90;3.70;;;23.40;67.90;;;;;;221746;1266;24184;-45
2023/05/25 23:29:32;;;;;;;5.60;3.00;;;23.40;68.00;;;;;;221659;1259;24340;-45
2023/05/25 23:34:35;;;;;;;4.90;2.80;;;23.40;67.90;;;;;;221768;1257;24726;-47
2023/05/25 23:46:34;;;;;;;5.30;3.60;;;23.40;68.00;;;;;;221764;1256;22646;-45
2023/05/25 23:51:38;;;;;;;4.90;3.60;;;23.40;68.00;;;;;;221977;1263;23347;-44
2023/05/25 23:56:42;;;;;;;5.50;3.10;;;23.30;67.60;;;;;;221627;1263;23893;-46
